sensor_id;sensor_type;location;lat;lon;timestamp;pressure;altitude;pressure_sealevel;temperature;humidity
65756;BME280;52489;47.502;18.940;2022-10-26T00:01:09;98663.25;;;10.85;99.98
65756;BME280;52489;47.502;18.940;2022-10-26T00:02:17;98675.16;;;10.77;99.30
65756;BME280;52489;47.502;18.940;2022-10-26T00:03:20;98676.66;;;10.83;99.49
65756;BME280;52489;47.502;18.940;2022-10-26T00:04:23;98674.19;;;10.92;99.09
65756;BME280;52489;47.502;18.940;2022-10-26T00:05:26;98675.91;;;11.02;98.86
65756;BME280;52489;47.502;18.940;2022-10-26T00:06:29;98676.47;;;10.99;99.91
65756;BME280;52489;47.502;18.940;2022-10-26T00:07:32;98679.47;;;10.87;99.77
65756;BME280;52489;47.502;18.940;2022-10-26T00:08:35;98676.59;;;10.88;100.00
65756;BME280;52489;47.502;18.940;2022-10-26T00:09:38;98677.22;;;10.99;99.75
65756;BME280;52489;47.502;18.940;2022-10-26T00:10:41;98673.22;;;11.07;99.59
65756;BME280;52489;47.502;18.940;2022-10-26T00:11:44;98672.78;;;11.00;99.56
65756;BME280;52489;47.502;18.940;2022-10-26T00:12:50;98675.69;;;10.98;100.00
65756;BME280;52489;47.502;18.940;2022-10-26T00:13:53;98678.56;;;10.97;100.00
65756;BME280;52489;47.502;18.940;2022-10-26T00:14:56;98668.66;;;10.93;100.00
65756;BME280;52489;47.502;18.940;2022-10-26T00:15:59;98673.84;;;10.99;100.00
65756;BME280;52489;47.502;18.940;2022-10-26T00:17:02;98676.66;;;11.02;100.00
65756;BME280;52489;47.502;18.940;2022-10-26T00:18:05;98673.84;;;10.99;100.00
65756;BME280;52489;47.502;18.940;2022-10-26T00:19:08;98680.16;;;10.98;100.00
65756;BME280;52489;47.502;18.940;2022-10-26T00:20:11;98677.28;;;10.94;100.00
65756;BME280;52489;47.502;18.940;2022-10-26T00:21:14;98680.41;;;10.96;100.00
65756;BME280;52489;47.502;18.940;2022-10-26T00:22:17;98683.75;;;11.02;100.00
65756;BME280;52489;47.502;18.940;2022-10-26T00:23:20;98673.50;;;11.05;100.00
65756;BME280;52489;47.502;18.940;2022-10-26T00:24:23;98676.66;;;11.02;100.00
65756;BME280;52489;47.502;18.940;2022-10-26T00:25:26;98677.75;;;11.01;100.00
65756;BME280;52489;47.502;18.940;2022-10-26T00:26:29;98678.00;;;11.00;100.00
65756;BME280;52489;47.502;18.940;2022-10-26T00:27:33;98675.84;;;11.07;100.00
65756;BME280;52489;47.502;18.940;2022-10-26T00:28:36;98671.62;;;11.06;99.87
65756;BME280;52489;47.502;18.940;2022-10-26T00:29:39;98679.09;;;11.18;99.32
65756;BME280;52489;47.502;18.940;2022-10-26T00:30:42;98680.53;;;11.10;99.50
65756;BME280;52489;47.502;18.940;2022-10-26T00:31:44;98678.31;;;11.17;99.45
65756;BME280;52489;47.502;18.940;2022-10-26T00:32:47;98670.81;;;11.10;99.38
65756;BME280;52489;47.502;18.940;2022-10-26T00:33:54;98675.53;;;11.08;99.72
65756;BME280;52489;47.502;18.940;2022-10-26T00:34:57;98676.81;;;11.11;99.85
65756;BME280;52489;47.502;18.940;2022-10-26T00:36:17;98673.94;;;11.12;99.37
65756;BME280;52489;47.502;18.940;2022-10-26T00:37:20;98671.38;;;11.07;100.00
65756;BME280;52489;47.502;18.940;2022-10-26T00:38:23;98672.09;;;11.13;100.00
65756;BME280;52489;47.502;18.940;2022-10-26T00:39:26;98665.72;;;11.19;99.63
65756;BME280;52489;47.502;18.940;2022-10-26T00:40:29;98666.34;;;11.11;99.89
65756;BME280;52489;47.502;18.940;2022-10-26T00:41:33;98664.59;;;11.06;100.00
65756;BME280;52489;47.502;18.940;2022-10-26T00:42:36;98662.16;;;11.10;100.00
65756;BME280;52489;47.502;18.940;2022-10-26T00:43:39;98660.81;;;11.12;100.00
65756;BME280;52489;47.502;18.940;2022-10-26T00:45:57;98664.34;;;11.03;100.00
65756;BME280;52489;47.502;18.940;2022-10-26T00:47:01;98660.69;;;11.04;100.00
65756;BME280;52489;47.502;18.940;2022-10-26T00:48:06;98663.44;;;11.12;99.52
65756;BME280;52489;47.502;18.940;2022-10-26T00:49:17;98660.59;;;11.09;98.63
65756;BME280;52489;47.502;18.940;2022-10-26T00:50:30;98665.34;;;11.07;99.29
65756;BME280;52489;47.502;18.940;2022-10-26T00:51:41;98664.44;;;10.98;100.00
65756;BME280;52489;47.502;18.940;2022-10-26T00:52:47;98663.91;;;10.96;100.00
65756;BME280;52489;47.502;18.940;2022-10-26T00:53:51;98658.69;;;10.96;100.00
65756;BME280;52489;47.502;18.940;2022-10-26T00:54:56;98653.84;;;11.03;100.00
65756;BME280;52489;47.502;18.940;2022-10-26T00:56:00;98653.53;;;11.09;100.00
65756;BME280;52489;47.502;18.940;2022-10-26T00:57:03;98650.91;;;11.09;100.00
65756;BME280;52489;47.502;18.940;2022-10-26T00:58:07;98653.38;;;11.01;100.00
65756;BME280;52489;47.502;18.940;2022-10-26T00:59:12;98656.78;;;11.01;100.00
65756;BME280;52489;47.502;18.940;2022-10-26T01:00:17;98661.25;;;11.01;100.00
65756;BME280;52489;47.502;18.940;2022-10-26T01:01:20;98659.37;;;11.01;100.00
65756;BME280;52489;47.502;18.940;2022-10-26T01:02:23;98656.34;;;11.13;100.00
65756;BME280;52489;47.502;18.940;2022-10-26T01:03:26;98650.66;;;11.06;100.00
65756;BME280;52489;47.502;18.940;2022-10-26T01:04:29;98655.19;;;11.00;100.00
65756;BME280;52489;47.502;18.940;2022-10-26T01:05:34;98656.25;;;10.99;100.00
65756;BME280;52489;47.502;18.940;2022-10-26T01:06:39;98658.38;;;10.97;100.00
65756;BME280;52489;47.502;18.940;2022-10-26T01:07:43;98658.94;;;10.94;100.00
65756;BME280;52489;47.502;18.940;2022-10-26T01:08:47;98661.25;;;11.01;100.00
65756;BME280;52489;47.502;18.940;2022-10-26T01:09:52;98653.03;;;11.07;100.00
65756;BME280;52489;47.502;18.940;2022-10-26T01:10:56;98657.53;;;11.02;100.00
65756;BME280;52489;47.502;18.940;2022-10-26T01:12:00;98658.06;;;11.04;100.00
65756;BME280;52489;47.502;18.940;2022-10-26T01:13:03;98658.06;;;11.04;100.00
65756;BME280;52489;47.502;18.940;2022-10-26T01:14:08;98648.91;;;11.01;100.00
65756;BME280;52489;47.502;18.940;2022-10-26T01:15:12;98659.59;;;11.05;100.00
65756;BME280;52489;47.502;18.940;2022-10-26T01:17:54;98646.50;;;11.05;100.00
65756;BME280;52489;47.502;18.940;2022-10-26T01:20:47;98662.59;;;10.98;100.00
65756;BME280;52489;47.502;18.940;2022-10-26T01:28:51;98651.16;;;11.08;100.00
65756;BME280;52489;47.502;18.940;2022-10-26T01:30:25;98647.84;;;11.02;100.00
65756;BME280;52489;47.502;18.940;2022-10-26T01:31:36;98650.41;;;11.07;100.00
65756;BME280;52489;47.502;18.940;2022-10-26T01:32:45;98646.84;;;11.17;100.00
65756;BME280;52489;47.502;18.940;2022-10-26T01:34:00;98647.72;;;11.12;100.00
65756;BME280;52489;47.502;18.940;2022-10-26T01:35:20;98649.12;;;11.05;100.00
65756;BME280;52489;47.502;18.940;2022-10-26T01:36:47;98646.84;;;11.17;100.00
65756;BME280;52489;47.502;18.940;2022-10-26T01:38:08;98650.59;;;11.11;100.00
65756;BME280;52489;47.502;18.940;2022-10-26T01:39:28;98647.84;;;11.02;100.00
65756;BME280;52489;47.502;18.940;2022-10-26T01:40:39;98648.03;;;11.06;100.00
65756;BME280;52489;47.502;18.940;2022-10-26T01:41:49;98648.12;;;11.20;100.00
65756;BME280;52489;47.502;18.940;2022-10-26T01:42:55;98645.72;;;11.04;100.00
65756;BME280;52489;47.502;18.940;2022-10-26T01:44:08;98648.12;;;11.01;100.00
65756;BME280;52489;47.502;18.940;2022-10-26T01:45:13;98647.78;;;11.07;100.00
65756;BME280;52489;47.502;18.940;2022-10-26T01:46:17;98651.25;;;11.22;99.84
65756;BME280;52489;47.502;18.940;2022-10-26T01:47:23;98648.28;;;11.09;100.00
65756;BME280;52489;47.502;18.940;2022-10-26T01:48:28;98646.56;;;11.00;100.00
65756;BME280;52489;47.502;18.940;2022-10-26T01:49:35;98643.00;;;10.90;100.00
65756;BME280;52489;47.502;18.940;2022-10-26T01:50:42;98644.84;;;10.90;100.00
65756;BME280;52489;47.502;18.940;2022-10-26T01:51:47;98646.13;;;10.92;100.00
65756;BME280;52489;47.502;18.940;2022-10-26T01:52:51;98649.47;;;10.98;100.00
65756;BME280;52489;47.502;18.940;2022-10-26T01:53:54;98640.53;;;10.80;100.00
65756;BME280;52489;47.502;18.940;2022-10-26T01:56:38;98642.28;;;10.85;100.00
65756;BME280;52489;47.502;18.940;2022-10-26T01:57:45;98649.25;;;10.95;100.00
65756;BME280;52489;47.502;18.940;2022-10-26T02:00:23;98645.66;;;10.66;100.00
65756;BME280;52489;47.502;18.940;2022-10-26T02:04:07;98640.72;;;10.65;100.00
65756;BME280;52489;47.502;18.940;2022-10-26T02:08:26;98635.69;;;10.44;100.00
65756;BME280;52489;47.502;18.940;2022-10-26T02:11:47;98641.88;;;10.54;100.00
65756;BME280;52489;47.502;18.940;2022-10-26T02:14:32;98631.63;;;10.57;100.00
65756;BME280;52489;47.502;18.940;2022-10-26T02:16:54;98631.88;;;10.56;99.90
65756;BME280;52489;47.502;18.940;2022-10-26T02:19:28;98629.06;;;10.52;100.00
65756;BME280;52489;47.502;18.940;2022-10-26T02:20:37;98627.28;;;10.47;100.00
65756;BME280;52489;47.502;18.940;2022-10-26T02:21:46;98629.56;;;10.54;99.77
65756;BME280;52489;47.502;18.940;2022-10-26T02:22:51;98626.03;;;10.64;98.70
65756;BME280;52489;47.502;18.940;2022-10-26T02:23:57;98627.38;;;10.61;99.17
65756;BME280;52489;47.502;18.940;2022-10-26T02:25:07;98630.13;;;10.51;100.00
65756;BME280;52489;47.502;18.940;2022-10-26T02:26:15;98630.72;;;10.43;100.00
65756;BME280;52489;47.502;18.940;2022-10-26T02:27:23;98633.09;;;10.44;100.00
65756;BME280;52489;47.502;18.940;2022-10-26T02:28:33;98638.31;;;10.44;100.00
65756;BME280;52489;47.502;18.940;2022-10-26T02:29:38;98627.50;;;10.51;100.00
65756;BME280;52489;47.502;18.940;2022-10-26T02:30:44;98628.56;;;10.50;100.00
65756;BME280;52489;47.502;18.940;2022-10-26T02:31:50;98638.31;;;10.44;100.00
65756;BME280;52489;47.502;18.940;2022-10-26T02:32:55;98631.56;;;10.38;100.00
65756;BME280;52489;47.502;18.940;2022-10-26T02:34:01;98628.97;;;10.38;100.00
65756;BME280;52489;47.502;18.940;2022-10-26T02:35:06;98633.00;;;10.50;100.00
65756;BME280;52489;47.502;18.940;2022-10-26T02:36:12;98635.53;;;10.60;100.00
65756;BME280;52489;47.502;18.940;2022-10-26T02:37:18;98632.56;;;10.66;100.00
65756;BME280;52489;47.502;18.940;2022-10-26T02:38:23;98638.34;;;10.63;100.00
65756;BME280;52489;47.502;18.940;2022-10-26T02:39:30;98639.44;;;10.62;100.00
65756;BME280;52489;47.502;18.940;2022-10-26T02:40:35;98638.53;;;10.72;100.00
65756;BME280;52489;47.502;18.940;2022-10-26T02:41:39;98643.03;;;10.66;100.00
65756;BME280;52489;47.502;18.940;2022-10-26T02:42:44;98646.72;;;10.65;100.00
65756;BME280;52489;47.502;18.940;2022-10-26T02:45:11;98641.03;;;10.58;100.00
65756;BME280;52489;47.502;18.940;2022-10-26T02:46:19;98642.09;;;10.57;100.00
65756;BME280;52489;47.502;18.940;2022-10-26T02:47:24;98633.50;;;10.52;100.00
65756;BME280;52489;47.502;18.940;2022-10-26T02:48:28;98642.88;;;10.58;100.00
65756;BME280;52489;47.502;18.940;2022-10-26T02:49:31;98645.22;;;10.59;100.00
65756;BME280;52489;47.502;18.940;2022-10-26T02:51:02;98646.50;;;10.62;100.00
65756;BME280;52489;47.502;18.940;2022-10-26T02:52:28;98647.13;;;10.54;100.00
65756;BME280;52489;47.502;18.940;2022-10-26T02:56:13;98645.53;;;10.29;100.00
65756;BME280;52489;47.502;18.940;2022-10-26T02:57:31;98650.13;;;10.42;100.00
65756;BME280;52489;47.502;18.940;2022-10-26T02:58:39;98662.06;;;10.53;100.00
65756;BME280;52489;47.502;18.940;2022-10-26T02:59:46;98655.03;;;10.48;99.68
65756;BME280;52489;47.502;18.940;2022-10-26T03:00:50;98654.25;;;10.48;100.00
65756;BME280;52489;47.502;18.940;2022-10-26T03:01:53;98654.50;;;10.46;100.00
65756;BME280;52489;47.502;18.940;2022-10-26T03:02:58;98656.16;;;10.42;100.00
65756;BME280;52489;47.502;18.940;2022-10-26T03:04:01;98655.06;;;10.43;100.00
65756;BME280;52489;47.502;18.940;2022-10-26T03:05:11;98657.22;;;10.41;100.00
65756;BME280;52489;47.502;18.940;2022-10-26T03:06:22;98658.16;;;10.51;99.55
65756;BME280;52489;47.502;18.940;2022-10-26T03:07:26;98661.25;;;10.53;98.83
65756;BME280;52489;47.502;18.940;2022-10-26T03:08:29;98668.16;;;10.43;98.43
65756;BME280;52489;47.502;18.940;2022-10-26T03:09:32;98662.63;;;10.50;98.51
65756;BME280;52489;47.502;18.940;2022-10-26T03:10:39;98661.09;;;10.44;98.99
65756;BME280;52489;47.502;18.940;2022-10-26T03:11:43;98665.38;;;10.35;99.86
65756;BME280;52489;47.502;18.940;2022-10-26T03:12:46;98662.28;;;10.33;100.00
65756;BME280;52489;47.502;18.940;2022-10-26T03:13:49;98661.47;;;10.32;100.00
65756;BME280;52489;47.502;18.940;2022-10-26T03:14:52;98669.78;;;10.39;100.00
65756;BME280;52489;47.502;18.940;2022-10-26T03:15:55;98668.94;;;10.44;100.00
65756;BME280;52489;47.502;18.940;2022-10-26T03:16:59;98667.72;;;10.36;99.44
65756;BME280;52489;47.502;18.940;2022-10-26T03:18:02;98670.19;;;10.52;98.29
65756;BME280;52489;47.502;18.940;2022-10-26T03:19:05;98669.75;;;10.44;97.82
65756;BME280;52489;47.502;18.940;2022-10-26T03:20:09;98667.34;;;10.19;97.87
65756;BME280;52489;47.502;18.940;2022-10-26T03:21:12;98667.50;;;10.33;98.19
65756;BME280;52489;47.502;18.940;2022-10-26T03:22:15;98666.97;;;10.36;97.83
65756;BME280;52489;47.502;18.940;2022-10-26T03:23:18;98659.84;;;10.41;96.60
65756;BME280;52489;47.502;18.940;2022-10-26T03:24:21;98662.75;;;10.35;96.34
65756;BME280;52489;47.502;18.940;2022-10-26T03:25:24;98661.53;;;10.27;96.42
65756;BME280;52489;47.502;18.940;2022-10-26T03:26:27;98661.34;;;10.18;96.43
65756;BME280;52489;47.502;18.940;2022-10-26T03:27:30;98666.59;;;10.13;97.45
65756;BME280;52489;47.502;18.940;2022-10-26T03:28:33;98668.16;;;10.14;97.36
65756;BME280;52489;47.502;18.940;2022-10-26T03:29:36;98666.56;;;10.18;97.40
65756;BME280;52489;47.502;18.940;2022-10-26T03:30:39;98667.44;;;10.09;97.94
65756;BME280;52489;47.502;18.940;2022-10-26T03:31:41;98668.22;;;10.09;97.99
65756;BME280;52489;47.502;18.940;2022-10-26T03:32:44;98668.91;;;10.20;97.63
65756;BME280;52489;47.502;18.940;2022-10-26T03:33:47;98677.97;;;10.33;96.70
65756;BME280;52489;47.502;18.940;2022-10-26T03:34:50;98680.31;;;10.34;96.42
65756;BME280;52489;47.502;18.940;2022-10-26T03:35:54;98679.88;;;10.22;96.90
65756;BME280;52489;47.502;18.940;2022-10-26T03:36:58;98664.22;;;10.17;97.10
65756;BME280;52489;47.502;18.940;2022-10-26T03:38:01;98672.13;;;10.12;97.84
65756;BME280;52489;47.502;18.940;2022-10-26T03:39:04;98673.66;;;10.18;98.00
65756;BME280;52489;47.502;18.940;2022-10-26T03:40:07;98670.19;;;10.22;97.75
65756;BME280;52489;47.502;18.940;2022-10-26T03:41:10;98673.03;;;10.26;97.66
65756;BME280;52489;47.502;18.940;2022-10-26T03:42:13;98674.56;;;10.32;97.25
65756;BME280;52489;47.502;18.940;2022-10-26T03:43:16;98677.47;;;10.31;97.38
65756;BME280;52489;47.502;18.940;2022-10-26T03:44:19;98677.97;;;10.33;97.40
65756;BME280;52489;47.502;18.940;2022-10-26T03:45:22;98675.72;;;10.21;98.07
65756;BME280;52489;47.502;18.940;2022-10-26T03:46:25;98676.72;;;10.25;98.11
65756;BME280;52489;47.502;18.940;2022-10-26T03:47:27;98681.63;;;10.32;97.79
65756;BME280;52489;47.502;18.940;2022-10-26T03:48:30;98687.22;;;10.20;98.31
65756;BME280;52489;47.502;18.940;2022-10-26T03:49:36;98686.97;;;10.21;97.73
65756;BME280;52489;47.502;18.940;2022-10-26T03:50:39;98679.88;;;10.27;97.45
65756;BME280;52489;47.502;18.940;2022-10-26T03:51:42;98679.88;;;10.27;97.37
65756;BME280;52489;47.502;18.940;2022-10-26T03:52:46;98680.41;;;10.24;97.93
65756;BME280;52489;47.502;18.940;2022-10-26T03:53:50;98691.13;;;10.22;97.91
65756;BME280;52489;47.502;18.940;2022-10-26T03:54:53;98681.87;;;10.06;98.82
65756;BME280;52489;47.502;18.940;2022-10-26T03:55:56;98685.03;;;10.03;99.14
65756;BME280;52489;47.502;18.940;2022-10-26T03:56:59;98681.56;;;10.08;99.02
65756;BME280;52489;47.502;18.940;2022-10-26T03:58:03;98683.22;;;9.98;99.94
65756;BME280;52489;47.502;18.940;2022-10-26T03:59:06;98685.31;;;9.96;100.00
65756;BME280;52489;47.502;18.940;2022-10-26T04:00:11;98680.91;;;9.97;100.00
65756;BME280;52489;47.502;18.940;2022-10-26T04:01:16;98686.06;;;10.02;100.00
65756;BME280;52489;47.502;18.940;2022-10-26T04:02:19;98691.53;;;10.06;100.00
65756;BME280;52489;47.502;18.940;2022-10-26T04:03:22;98683.69;;;10.06;100.00
65756;BME280;52489;47.502;18.940;2022-10-26T04:04:25;98682.13;;;10.05;100.00
65756;BME280;52489;47.502;18.940;2022-10-26T04:05:28;98689.44;;;10.08;100.00
65756;BME280;52489;47.502;18.940;2022-10-26T04:06:31;98689.56;;;10.27;100.00
65756;BME280;52489;47.502;18.940;2022-10-26T04:07:34;98701.03;;;10.31;99.40
65756;BME280;52489;47.502;18.940;2022-10-26T04:08:37;98691.34;;;10.31;98.38
65756;BME280;52489;47.502;18.940;2022-10-26T04:09:40;98689.81;;;10.25;98.49
65756;BME280;52489;47.502;18.940;2022-10-26T04:10:44;98696.34;;;10.28;98.41
65756;BME280;52489;47.502;18.940;2022-10-26T04:11:47;98691.16;;;10.17;98.19
65756;BME280;52489;47.502;18.940;2022-10-26T04:12:50;98690.34;;;10.22;97.42
65756;BME280;52489;47.502;18.940;2022-10-26T04:13:53;98694.84;;;10.16;97.68
65756;BME280;52489;47.502;18.940;2022-10-26T04:14:56;98693.00;;;10.17;97.94
65756;BME280;52489;47.502;18.940;2022-10-26T04:16:00;98685.78;;;10.09;98.45
65756;BME280;52489;47.502;18.940;2022-10-26T04:17:02;98687.88;;;10.07;99.11
65756;BME280;52489;47.502;18.940;2022-10-26T04:18:05;98691.22;;;10.12;99.03
65756;BME280;52489;47.502;18.940;2022-10-26T04:19:08;98695.63;;;10.17;98.84
65756;BME280;52489;47.502;18.940;2022-10-26T04:20:12;98690.47;;;10.12;99.99
65756;BME280;52489;47.502;18.940;2022-10-26T04:21:15;98681.56;;;10.08;100.00
65756;BME280;52489;47.502;18.940;2022-10-26T04:22:17;98685.81;;;10.03;100.00
65756;BME280;52489;47.502;18.940;2022-10-26T04:23:20;98684.31;;;9.92;100.00
65756;BME280;52489;47.502;18.940;2022-10-26T04:24:23;98686.38;;;9.95;100.00
65756;BME280;52489;47.502;18.940;2022-10-26T04:25:26;98691.22;;;10.12;100.00
65756;BME280;52489;47.502;18.940;2022-10-26T04:26:34;98687.50;;;10.18;98.98
65756;BME280;52489;47.502;18.940;2022-10-26T04:27:37;98687.88;;;10.07;98.46
65756;BME280;52489;47.502;18.940;2022-10-26T04:28:40;98680.03;;;10.07;98.46
65756;BME280;52489;47.502;18.940;2022-10-26T04:29:42;98684.72;;;10.10;98.34
65756;BME280;52489;47.502;18.940;2022-10-26T04:30:46;98685.28;;;10.01;99.33
65756;BME280;52489;47.502;18.940;2022-10-26T04:31:49;98681.16;;;9.95;100.00
65756;BME280;52489;47.502;18.940;2022-10-26T04:32:52;98676.47;;;9.92;100.00
65756;BME280;52489;47.502;18.940;2022-10-26T04:33:55;98680.59;;;9.98;100.00
65756;BME280;52489;47.502;18.940;2022-10-26T04:34:58;98681.31;;;10.09;99.57
65756;BME280;52489;47.502;18.940;2022-10-26T04:36:01;98683.88;;;10.14;99.02
65756;BME280;52489;47.502;18.940;2022-10-26T04:37:04;98683.88;;;10.14;98.85
65756;BME280;52489;47.502;18.940;2022-10-26T04:38:06;98686.91;;;9.97;100.00
65756;BME280;52489;47.502;18.940;2022-10-26T04:39:09;98683.00;;;9.95;100.00
65756;BME280;52489;47.502;18.940;2022-10-26T04:40:12;98677.47;;;9.96;100.00
65756;BME280;52489;47.502;18.940;2022-10-26T04:41:15;98684.56;;;9.96;100.00
65756;BME280;52489;47.502;18.940;2022-10-26T04:42:18;98676.66;;;10.01;100.00
65756;BME280;52489;47.502;18.940;2022-10-26T04:43:24;98685.72;;;10.14;100.00
65756;BME280;52489;47.502;18.940;2022-10-26T04:44:27;98686.12;;;10.26;100.00
65756;BME280;52489;47.502;18.940;2022-10-26T04:45:30;98679.91;;;10.17;100.00
65756;BME280;52489;47.502;18.940;2022-10-26T04:46:33;98682.06;;;10.15;100.00
65756;BME280;52489;47.502;18.940;2022-10-26T04:47:36;98685.13;;;10.22;100.00
65756;BME280;52489;47.502;18.940;2022-10-26T04:48:39;98681.50;;;10.18;100.00
65756;BME280;52489;47.502;18.940;2022-10-26T04:49:42;98674.47;;;10.13;100.00
65756;BME280;52489;47.502;18.940;2022-10-26T04:50:44;98681.94;;;10.25;100.00
65756;BME280;52489;47.502;18.940;2022-10-26T04:51:47;98679.03;;;10.32;100.00
65756;BME280;52489;47.502;18.940;2022-10-26T04:52:50;98674.84;;;10.31;100.00
65756;BME280;52489;47.502;18.940;2022-10-26T04:53:54;98673.34;;;10.19;100.00
65756;BME280;52489;47.502;18.940;2022-10-26T04:55:00;98677.31;;;10.17;100.00
65756;BME280;52489;47.502;18.940;2022-10-26T04:56:07;98671.50;;;10.20;100.00
65756;BME280;52489;47.502;18.940;2022-10-26T04:57:10;98674.69;;;10.17;100.00
65756;BME280;52489;47.502;18.940;2022-10-26T04:58:13;98669.44;;;10.17;100.00
65756;BME280;52489;47.502;18.940;2022-10-26T04:59:16;98672.16;;;10.07;100.00
65756;BME280;52489;47.502;18.940;2022-10-26T05:00:19;98677.38;;;10.12;100.00
65756;BME280;52489;47.502;18.940;2022-10-26T05:01:22;98678.38;;;10.16;100.00
65756;BME280;52489;47.502;18.940;2022-10-26T05:02:26;98676.56;;;10.11;100.00
65756;BME280;52489;47.502;18.940;2022-10-26T05:03:29;98676.53;;;10.16;100.00
65756;BME280;52489;47.502;18.940;2022-10-26T05:04:32;98668.97;;;10.15;100.00
65756;BME280;52489;47.502;18.940;2022-10-26T05:05:35;98669.41;;;10.22;100.00
65756;BME280;52489;47.502;18.940;2022-10-26T05:06:38;98670.19;;;10.22;100.00
65756;BME280;52489;47.502;18.940;2022-10-26T05:07:41;98670.22;;;10.17;100.00
65756;BME280;52489;47.502;18.940;2022-10-26T05:08:44;98669.78;;;10.10;100.00
65756;BME280;52489;47.502;18.940;2022-10-26T05:09:47;98670.28;;;10.12;100.00
65756;BME280;52489;47.502;18.940;2022-10-26T05:10:50;98653.84;;;10.07;100.00
65756;BME280;52489;47.502;18.940;2022-10-26T05:11:53;98667.13;;;10.15;100.00
65756;BME280;52489;47.502;18.940;2022-10-26T05:12:57;98666.66;;;10.08;99.61
65756;BME280;52489;47.502;18.940;2022-10-26T05:14:00;98662.72;;;10.06;98.64
65756;BME280;52489;47.502;18.940;2022-10-26T05:15:04;98667.50;;;10.03;98.59
65756;BME280;52489;47.502;18.940;2022-10-26T05:16:10;98669.22;;;10.13;98.23
65756;BME280;52489;47.502;18.940;2022-10-26T05:17:12;98671.28;;;10.16;97.41
65756;BME280;52489;47.502;18.940;2022-10-26T05:18:15;98673.91;;;10.16;97.46
65756;BME280;52489;47.502;18.940;2022-10-26T05:19:18;98674.25;;;10.10;97.37
65756;BME280;52489;47.502;18.940;2022-10-26T05:20:22;98672.63;;;10.14;97.56
65756;BME280;52489;47.502;18.940;2022-10-26T05:21:30;98670.31;;;10.07;97.48
65756;BME280;52489;47.502;18.940;2022-10-26T05:22:33;98670.09;;;10.03;97.63
65756;BME280;52489;47.502;18.940;2022-10-26T05:23:36;98676.06;;;10.09;97.51
65756;BME280;52489;47.502;18.940;2022-10-26T05:24:39;98672.44;;;10.05;97.86
65756;BME280;52489;47.502;18.940;2022-10-26T05:25:42;98678.19;;;10.07;97.84
65756;BME280;52489;47.502;18.940;2022-10-26T05:26:45;98674.56;;;10.03;97.74
65756;BME280;52489;47.502;18.940;2022-10-26T05:27:48;98673.03;;;9.97;98.45
65756;BME280;52489;47.502;18.940;2022-10-26T05:28:51;98674.41;;;9.89;99.21
65756;BME280;52489;47.502;18.940;2022-10-26T05:29:54;98677.06;;;9.84;99.96
65756;BME280;52489;47.502;18.940;2022-10-26T05:30:57;98671.78;;;9.89;100.00
65756;BME280;52489;47.502;18.940;2022-10-26T05:32:00;98679.09;;;9.92;99.90
65756;BME280;52489;47.502;18.940;2022-10-26T05:33:03;98672.97;;;10.02;99.53
65756;BME280;52489;47.502;18.940;2022-10-26T05:34:06;98679.50;;;10.05;99.34
65756;BME280;52489;47.502;18.940;2022-10-26T05:35:12;98684.22;;;10.02;99.35
65756;BME280;52489;47.502;18.940;2022-10-26T05:36:18;98682.22;;;9.94;99.82
65756;BME280;52489;47.502;18.940;2022-10-26T05:37:21;98679.31;;;9.96;99.91
65756;BME280;52489;47.502;18.940;2022-10-26T05:38:24;98680.28;;;10.05;99.49
65756;BME280;52489;47.502;18.940;2022-10-26T05:39:28;98670.66;;;10.00;99.76
65756;BME280;52489;47.502;18.940;2022-10-26T05:40:31;98678.00;;;9.98;100.00
65756;BME280;52489;47.502;18.940;2022-10-26T05:41:34;98674.37;;;9.94;100.00
65756;BME280;52489;47.502;18.940;2022-10-26T05:42:37;98680.66;;;9.93;100.00
65756;BME280;52489;47.502;18.940;2022-10-26T05:43:40;98685.62;;;9.95;100.00
65756;BME280;52489;47.502;18.940;2022-10-26T05:44:42;98683.50;;;9.97;100.00
65756;BME280;52489;47.502;18.940;2022-10-26T05:45:45;98684.97;;;10.08;100.00
65756;BME280;52489;47.502;18.940;2022-10-26T05:46:49;98688.03;;;10.20;100.00
65756;BME280;52489;47.502;18.940;2022-10-26T05:47:51;98690.91;;;10.19;100.00
65756;BME280;52489;47.502;18.940;2022-10-26T05:48:59;98689.37;;;10.13;100.00
65756;BME280;52489;47.502;18.940;2022-10-26T05:50:02;98693.13;;;10.07;100.00
65756;BME280;52489;47.502;18.940;2022-10-26T05:51:05;98697.56;;;10.06;100.00
65756;BME280;52489;47.502;18.940;2022-10-26T05:52:08;98690.94;;;10.14;100.00
65756;BME280;52489;47.502;18.940;2022-10-26T05:53:11;98696.69;;;10.16;100.00
65756;BME280;52489;47.502;18.940;2022-10-26T05:54:14;98688.84;;;10.16;100.00
65756;BME280;52489;47.502;18.940;2022-10-26T05:55:17;98699.53;;;10.19;100.00
65756;BME280;52489;47.502;18.940;2022-10-26T05:56:36;98700.28;;;10.25;100.00
65756;BME280;52489;47.502;18.940;2022-10-26T05:57:40;98699.22;;;10.26;100.00
65756;BME280;52489;47.502;18.940;2022-10-26T05:58:44;98701.56;;;10.33;100.00
65756;BME280;52489;47.502;18.940;2022-10-26T05:59:47;98696.25;;;10.38;100.00
65756;BME280;52489;47.502;18.940;2022-10-26T06:02:28;98696.97;;;10.43;100.00
65756;BME280;52489;47.502;18.940;2022-10-26T06:05:02;98705.09;;;10.47;100.00
65756;BME280;52489;47.502;18.940;2022-10-26T06:06:17;98709.25;;;10.48;100.00
65756;BME280;52489;47.502;18.940;2022-10-26T06:07:20;98706.84;;;10.52;100.00
65756;BME280;52489;47.502;18.940;2022-10-26T06:08:25;98708.88;;;10.60;100.00
65756;BME280;52489;47.502;18.940;2022-10-26T06:09:28;98709.66;;;10.60;100.00
65756;BME280;52489;47.502;18.940;2022-10-26T06:10:32;98707.81;;;10.61;100.00
65756;BME280;52489;47.502;18.940;2022-10-26T06:11:35;98711.16;;;10.66;100.00